createdAt,value
2024-01-24T00:00:34.795Z,96380.00
2024-01-24T00:01:34.737Z,96368.00
2024-01-24T00:02:34.697Z,96363.00
2024-01-24T00:03:34.780Z,96361.00
2024-01-24T00:04:34.693Z,96360.00
2024-01-24T00:57:57.095Z,96308.00
2024-01-24T00:58:34.984Z,96308.00
2024-01-24T00:59:34.989Z,96305.00
2024-01-24T01:00:35.123Z,96306.00
2024-01-24T01:01:35.549Z,96306.00
2024-01-24T01:02:37.963Z,96308.00
2024-01-24T01:03:35.096Z,96311.00
2024-01-24T01:04:35.105Z,96312.00
2024-01-24T01:05:35.052Z,96312.00
2024-01-24T01:06:35.108Z,96310.00
2024-01-24T01:07:35.072Z,96311.00
2024-01-24T01:08:35.086Z,96308.00
2024-01-24T01:09:35.993Z,96308.00
2024-01-24T01:10:37.963Z,96311.00
2024-01-24T01:11:35.067Z,96308.00
2024-01-24T01:12:36.019Z,96308.00
2024-01-24T01:13:35.094Z,96311.00
2024-01-24T01:14:35.065Z,96311.00
2024-01-24T01:15:35.094Z,96309.00
2024-01-24T01:16:35.065Z,96309.00
2024-01-24T01:17:35.098Z,96305.00
2024-01-24T01:18:35.104Z,96305.00
2024-01-24T01:19:35.127Z,96305.00
2024-01-24T01:20:35.071Z,96307.00
2024-01-24T01:21:38.049Z,96305.00
2024-01-24T01:22:35.494Z,96303.00
2024-01-24T01:23:41.964Z,96297.00
2024-01-24T01:24:35.137Z,96297.00
2024-01-24T01:25:35.085Z,96296.00
2024-01-24T01:26:35.085Z,96296.00
2024-01-24T01:27:35.113Z,96291.00
2024-01-24T01:28:35.091Z,96291.00
2024-01-24T01:29:38.008Z,96287.00
2024-01-24T01:30:35.124Z,96284.00
2024-01-24T01:31:41.968Z,96288.00
2024-01-24T01:32:35.429Z,96287.00
2024-01-24T01:33:35.183Z,96288.00
2024-01-24T01:34:35.194Z,96284.00
2024-01-24T01:35:35.092Z,96284.00
2024-01-24T01:36:37.988Z,96280.00
2024-01-24T01:37:35.125Z,96282.00
2024-01-24T01:38:35.478Z,96285.00
2024-01-24T01:39:35.205Z,96287.00
2024-01-24T01:40:35.111Z,96283.00
2024-01-24T01:41:35.125Z,96278.00
2024-01-24T01:42:35.134Z,96273.00
2024-01-24T01:43:35.107Z,96270.00
2024-01-24T01:44:35.122Z,96273.00
2024-01-24T01:45:35.156Z,96271.00
2024-01-24T01:46:35.125Z,96268.00
2024-01-24T01:47:35.191Z,96269.00
2024-01-24T01:48:35.214Z,96272.00
2024-01-24T01:49:35.245Z,96269.00
2024-01-24T01:50:35.124Z,96258.00
2024-01-24T01:51:35.178Z,96250.00
2024-01-24T01:52:35.139Z,96248.00
2024-01-24T01:53:41.981Z,96251.00
2024-01-24T01:54:35.204Z,96249.00
2024-01-24T01:55:35.132Z,96241.00
2024-01-24T01:56:35.975Z,96237.00
2024-01-24T01:57:35.214Z,96236.00
2024-01-24T01:58:37.986Z,96232.00
2024-01-24T01:59:35.160Z,96227.00
2024-01-24T02:00:35.201Z,96231.00
2024-01-24T02:01:42.139Z,96236.00
2024-01-24T02:02:35.171Z,96232.00
2024-01-24T02:03:35.244Z,96231.00
2024-01-24T02:04:35.175Z,96235.00
2024-01-24T02:05:38.319Z,96235.00
2024-01-24T02:06:35.313Z,96226.00
2024-01-24T02:07:35.311Z,96219.00
2024-01-24T02:08:37.981Z,96216.00
2024-01-24T02:09:42.030Z,96211.00
2024-01-24T02:10:35.523Z,96213.00
2024-01-24T02:11:35.165Z,96216.00
2024-01-24T02:12:35.256Z,96212.00
2024-01-24T02:13:35.171Z,96207.00
2024-01-24T02:14:35.178Z,96204.00
2024-01-24T02:15:38.039Z,96204.00
2024-01-24T02:16:35.188Z,96203.00
2024-01-24T02:17:35.527Z,96199.00
2024-01-24T02:18:35.242Z,96196.00
2024-01-24T02:19:35.232Z,96190.00
2024-01-24T02:20:35.178Z,96190.00
2024-01-24T02:21:35.226Z,96196.00
2024-01-24T02:22:35.192Z,96200.00
2024-01-24T02:23:35.184Z,96206.00
2024-01-24T02:24:35.243Z,96201.00
2024-01-24T02:25:37.989Z,96188.00
2024-01-24T02:26:35.193Z,96179.00
2024-01-24T02:27:35.232Z,96171.00
2024-01-24T02:28:37.988Z,96167.00
2024-01-24T02:29:35.492Z,96175.00
2024-01-24T02:30:35.237Z,96181.00
2024-01-24T02:31:35.210Z,96174.00
2024-01-24T02:32:35.207Z,96167.00
2024-01-24T02:33:35.282Z,96161.00
2024-01-24T02:34:35.257Z,96152.00
2024-01-24T02:35:35.210Z,96158.00
2024-01-24T02:36:35.247Z,96164.00
2024-01-24T02:37:35.229Z,96170.00
2024-01-24T02:38:35.225Z,96166.00
2024-01-24T02:39:35.246Z,96161.00
2024-01-24T02:40:56.226Z,96160.00
2024-01-24T02:41:35.228Z,96162.00
2024-01-24T02:42:35.271Z,96163.00
2024-01-24T02:43:35.232Z,96155.00
2024-01-24T02:44:35.235Z,96155.00
2024-01-24T02:45:35.295Z,96161.00
2024-01-24T02:46:35.240Z,96162.00
2024-01-24T02:47:35.269Z,96156.00
2024-01-24T02:48:35.384Z,96155.00
2024-01-24T02:49:35.368Z,96157.00
2024-01-24T02:50:35.253Z,96151.00
2024-01-24T02:51:35.290Z,96146.00
2024-01-24T02:52:35.249Z,96145.00
2024-01-24T02:53:35.249Z,96142.00
2024-01-24T02:54:35.504Z,96147.00
2024-01-24T02:55:41.995Z,96152.00
2024-01-24T02:56:35.253Z,96152.00
2024-01-24T02:57:35.303Z,96150.00
2024-01-24T02:58:35.260Z,96146.00
2024-01-24T02:59:35.256Z,96141.00
2024-01-24T03:00:35.292Z,96142.00
2024-01-24T03:01:35.286Z,96146.00
2024-01-24T03:02:35.258Z,96146.00
2024-01-24T03:03:35.588Z,96143.00
2024-01-24T03:04:35.335Z,96145.00
2024-01-24T03:05:35.302Z,96137.00
2024-01-24T03:06:35.367Z,96135.00
2024-01-24T03:07:36.035Z,96140.00
2024-01-24T03:08:35.260Z,96144.00
2024-01-24T03:09:35.326Z,96143.00
2024-01-24T03:10:35.260Z,96136.00
2024-01-24T03:11:35.267Z,96130.00
2024-01-24T03:12:35.303Z,96123.00
2024-01-24T03:13:35.288Z,96116.00
2024-01-24T03:14:35.272Z,96115.00
2024-01-24T03:15:38.059Z,96116.00
2024-01-24T03:16:35.277Z,96121.00
2024-01-24T03:17:35.430Z,96116.00
2024-01-24T03:18:35.379Z,96111.00
2024-01-24T03:19:35.380Z,96115.00
2024-01-24T03:20:35.278Z,96114.00
2024-01-24T03:21:35.395Z,96102.00
2024-01-24T03:22:35.294Z,96099.00
2024-01-24T03:23:38.008Z,96111.00
2024-01-24T03:24:35.317Z,96114.00
2024-01-24T03:25:35.299Z,96112.00
2024-01-24T03:26:35.299Z,96109.00
2024-01-24T03:27:35.418Z,96103.00
2024-01-24T03:28:36.035Z,96096.00
2024-01-24T03:29:38.014Z,96087.00
2024-01-24T03:30:35.346Z,96087.00
2024-01-24T03:31:35.310Z,96097.00
2024-01-24T03:32:35.365Z,96104.00
2024-01-24T03:33:35.313Z,96111.00
2024-01-24T03:34:35.341Z,96106.00
2024-01-24T03:35:35.314Z,96088.00
2024-01-24T03:36:35.385Z,96081.00
2024-01-24T03:37:35.341Z,96088.00
2024-01-24T03:38:35.320Z,96097.00
2024-01-24T03:39:35.349Z,96100.00
2024-01-24T03:40:42.025Z,96099.00
2024-01-24T03:41:35.326Z,96090.00
2024-01-24T03:42:35.582Z,96091.00
2024-01-24T03:43:36.077Z,96090.00
2024-01-24T03:44:35.335Z,96079.00
2024-01-24T03:45:35.391Z,96077.00
2024-01-24T03:46:35.535Z,96085.00
2024-01-24T03:47:35.355Z,96098.00
2024-01-24T03:48:35.396Z,96113.00
2024-01-24T03:49:35.390Z,96110.00
2024-01-24T03:50:35.347Z,96087.00
2024-01-24T03:51:35.384Z,96075.00
2024-01-24T03:52:35.350Z,96083.00
2024-01-24T03:53:35.377Z,96085.00
2024-01-24T03:54:35.447Z,96095.00
2024-01-24T03:55:35.348Z,96100.00
2024-01-24T03:56:35.362Z,96096.00
2024-01-24T03:57:35.407Z,96092.00
2024-01-24T03:58:36.024Z,96090.00
2024-01-24T03:59:36.023Z,96093.00
2024-01-24T04:00:35.418Z,96089.00
2024-01-24T04:01:35.402Z,96095.00
2024-01-24T04:02:35.405Z,96105.00
2024-01-24T04:03:35.505Z,96109.00
2024-01-24T04:04:42.055Z,96106.00
2024-01-24T04:05:35.490Z,96093.00
2024-01-24T04:06:35.567Z,96081.00
2024-01-24T04:07:35.549Z,96082.00
2024-01-24T04:08:35.539Z,96085.00
2024-01-24T04:09:35.655Z,96087.00
2024-01-24T04:10:35.595Z,96096.00
2024-01-24T04:11:35.648Z,96092.00
2024-01-24T04:12:35.743Z,96079.00
2024-01-24T04:13:35.745Z,96084.00
2024-01-24T04:14:42.798Z,96090.00
2024-01-24T04:15:45.304Z,96083.00
2024-01-24T04:16:43.800Z,96077.00
2024-01-24T04:17:43.962Z,96071.00
2024-01-24T04:18:43.920Z,96079.00
2024-01-24T04:19:43.868Z,96083.00
2024-01-24T04:20:46.441Z,96079.00
2024-01-24T04:21:43.834Z,96071.00
2024-01-24T04:22:43.912Z,96070.00
2024-01-24T04:23:43.805Z,96068.00
2024-01-24T04:24:43.887Z,96060.00
2024-01-24T04:25:43.820Z,96060.00
2024-01-24T04:26:44.399Z,96063.00
2024-01-24T04:27:43.884Z,96062.00
2024-01-24T04:28:43.821Z,96054.00
2024-01-24T04:29:46.501Z,96055.00
2024-01-24T04:30:53.664Z,96066.00
2024-01-24T04:32:00.782Z,96056.00
2024-01-24T04:33:01.914Z,96051.00
2024-01-24T04:34:01.971Z,96056.00
2024-01-24T04:35:01.818Z,96065.00
2024-01-24T04:36:01.777Z,96074.00
2024-01-24T04:37:01.786Z,96071.00
2024-01-24T04:38:01.780Z,96077.00
2024-01-24T04:39:01.784Z,96084.00
2024-01-24T04:40:01.849Z,96088.00
2024-01-24T04:41:01.792Z,96078.00
2024-01-24T04:42:08.478Z,96082.00
2024-01-24T04:43:01.838Z,96088.00
2024-01-24T04:44:01.777Z,96073.00
2024-01-24T04:45:01.796Z,96071.00
2024-01-24T04:46:01.821Z,96073.00
2024-01-24T04:47:01.888Z,96067.00
2024-01-24T04:48:01.828Z,96069.00
2024-01-24T04:49:01.834Z,96065.00
2024-01-24T04:50:01.829Z,96065.00
2024-01-24T04:51:01.788Z,96074.00
2024-01-24T04:52:01.814Z,96075.00
2024-01-24T04:53:01.789Z,96059.00
2024-01-24T04:54:01.799Z,96052.00
2024-01-24T04:55:01.815Z,96059.00
2024-01-24T04:56:01.814Z,96065.00
2024-01-24T04:57:01.797Z,96057.00
2024-01-24T04:58:01.839Z,96047.00
2024-01-24T04:59:01.808Z,96044.00
2024-01-24T05:00:03.090Z,96039.00
2024-01-24T05:01:02.079Z,96047.00
2024-01-24T05:02:01.957Z,96054.00
2024-01-24T05:03:02.001Z,96049.00
2024-01-24T05:04:02.143Z,96051.00
2024-01-24T05:05:02.024Z,96068.00
2024-01-24T05:06:07.670Z,96060.00
2024-01-24T05:07:02.103Z,96054.00
2024-01-24T05:08:02.057Z,96069.00
2024-01-24T05:09:08.895Z,96071.00
2024-01-24T05:10:02.117Z,96045.00
2024-01-24T05:11:02.903Z,96042.00
2024-01-24T05:12:02.092Z,96063.00
2024-01-24T05:13:02.097Z,96065.00
2024-01-24T05:14:02.070Z,96065.00
2024-01-24T05:15:02.070Z,96060.00
2024-01-24T05:16:02.067Z,96042.00
2024-01-24T05:17:02.402Z,96053.00
2024-01-24T05:18:02.973Z,96071.00
2024-01-24T05:19:02.170Z,96064.00
2024-01-24T05:20:02.078Z,96060.00
2024-01-24T05:21:02.072Z,96068.00
2024-01-24T05:22:02.063Z,96065.00
2024-01-24T05:23:02.067Z,96062.00
2024-01-24T05:24:02.430Z,96069.00
2024-01-24T05:25:02.112Z,96068.00
2024-01-24T05:26:02.102Z,96075.00
2024-01-24T05:27:08.935Z,96075.00
2024-01-24T05:28:02.115Z,96063.00
2024-01-24T05:29:02.122Z,96060.00
2024-01-24T05:30:11.808Z,96063.00
2024-01-24T05:31:02.161Z,96074.00
2024-01-24T05:32:08.904Z,96077.00
2024-01-24T05:33:02.993Z,96063.00
2024-01-24T05:34:02.209Z,96058.00
2024-01-24T05:35:02.221Z,96065.00
2024-01-24T05:36:02.162Z,96064.00
2024-01-24T05:37:02.208Z,96061.00
2024-01-24T05:38:02.150Z,96056.00
2024-01-24T05:39:04.906Z,96060.00
2024-01-24T05:40:02.348Z,96054.00
2024-01-24T05:41:02.903Z,96059.00
2024-01-24T05:42:02.145Z,96062.00
2024-01-24T05:43:02.310Z,96067.00
2024-01-24T05:44:02.142Z,96063.00
2024-01-24T05:45:02.147Z,96054.00
2024-01-24T05:46:02.998Z,96050.00
2024-01-24T05:47:02.150Z,96049.00
2024-01-24T05:48:02.319Z,96061.00
2024-01-24T05:49:02.796Z,96062.00
2024-01-24T05:50:02.150Z,96058.00
2024-01-24T05:51:02.146Z,96068.00
2024-01-24T05:52:08.993Z,96064.00
2024-01-24T05:53:02.153Z,96059.00
2024-01-24T05:54:02.167Z,96073.00
2024-01-24T05:55:02.994Z,96067.00
2024-01-24T05:56:02.153Z,96051.00
2024-01-24T05:57:02.158Z,96043.00
2024-01-24T05:58:02.210Z,96046.00
2024-01-24T05:59:02.179Z,96047.00
2024-01-24T06:00:04.944Z,96040.00
2024-01-24T06:01:02.251Z,96046.00
2024-01-24T06:02:02.214Z,96056.00
2024-01-24T06:03:02.161Z,96051.00
2024-01-24T06:04:02.235Z,96044.00
2024-01-24T06:05:02.236Z,96030.00
2024-01-24T06:06:02.263Z,96034.00
2024-01-24T06:07:02.343Z,96029.00
2024-01-24T06:08:02.170Z,96021.00
2024-01-24T06:09:02.197Z,96027.00
2024-01-24T06:10:02.184Z,96031.00
2024-01-24T06:11:02.187Z,96036.00
2024-01-24T06:12:02.184Z,96028.00
2024-01-24T06:13:04.925Z,96016.00
2024-01-24T06:14:02.172Z,96030.00
2024-01-24T06:15:08.940Z,96043.00
2024-01-24T06:16:02.205Z,96041.00
2024-01-24T06:17:02.189Z,96046.00
2024-01-24T06:18:02.202Z,96050.00
2024-01-24T06:19:02.273Z,96050.00
2024-01-24T06:20:02.183Z,96044.00
2024-01-24T06:21:02.202Z,96040.00
2024-01-24T06:22:02.485Z,96039.00
2024-01-24T06:23:02.184Z,96047.00
2024-01-24T06:24:02.185Z,96052.00
2024-01-24T06:25:02.249Z,96047.00
2024-01-24T06:26:02.437Z,96041.00
2024-01-24T06:27:02.478Z,96049.00
2024-01-24T06:28:02.509Z,96051.00
2024-01-24T06:29:02.507Z,96051.00
2024-01-24T06:30:18.249Z,96052.00
2024-01-24T06:31:02.595Z,96050.00
2024-01-24T06:32:02.528Z,96045.00
2024-01-24T06:33:02.963Z,96049.00
2024-01-24T06:34:02.660Z,96051.00
2024-01-24T06:35:02.536Z,96042.00
2024-01-24T06:36:02.532Z,96039.00
2024-01-24T06:37:02.734Z,96039.00
2024-01-24T06:38:02.618Z,96041.00
2024-01-24T06:39:04.450Z,96046.00
2024-01-24T06:40:02.553Z,96049.00
2024-01-24T06:41:02.550Z,96045.00
2024-01-24T06:42:02.544Z,96048.00
2024-01-24T06:43:02.952Z,96047.00
2024-01-24T06:44:02.551Z,96044.00
2024-01-24T06:45:02.549Z,96041.00
2024-01-24T06:46:02.631Z,96028.00
2024-01-24T06:47:02.589Z,96015.00
2024-01-24T06:48:02.992Z,96012.00
2024-01-24T06:49:02.693Z,96016.00
2024-01-24T06:50:02.986Z,96020.00
2024-01-24T06:51:02.945Z,96021.00
2024-01-24T06:52:02.562Z,96025.00
2024-01-24T06:53:02.566Z,96028.00
2024-01-24T06:54:02.572Z,96019.00
2024-01-24T06:55:03.005Z,96009.00
2024-01-24T06:56:02.572Z,96017.00
2024-01-24T06:57:03.436Z,96025.00
2024-01-24T06:58:04.976Z,96028.00
2024-01-24T06:59:02.955Z,96021.00
2024-01-24T07:00:02.571Z,96025.00
2024-01-24T07:01:03.655Z,96028.00
2024-01-24T07:02:06.674Z,96023.00
2024-01-24T07:03:03.688Z,96007.00
2024-01-24T07:04:02.684Z,96002.00
2024-01-24T07:05:03.192Z,96002.00
2024-01-24T07:06:02.957Z,95997.00
2024-01-24T07:07:02.654Z,95996.00
2024-01-24T07:08:02.953Z,95996.00
2024-01-24T07:09:02.629Z,95996.00
2024-01-24T07:10:02.667Z,96000.00
2024-01-24T07:11:02.951Z,96008.00
2024-01-24T07:12:02.629Z,96011.00
2024-01-24T07:13:02.795Z,96006.00
2024-01-24T07:14:02.655Z,96002.00
2024-01-24T07:15:03.244Z,96008.00
2024-01-24T07:16:02.765Z,96011.00
2024-01-24T07:17:03.057Z,96019.00
2024-01-24T07:18:08.820Z,96027.00
2024-01-24T07:19:02.786Z,96026.00
2024-01-24T07:20:02.772Z,96014.00
2024-01-24T07:21:03.465Z,96014.00
2024-01-24T07:22:04.886Z,96012.00
2024-01-24T07:23:02.770Z,96008.00
2024-01-24T07:24:02.752Z,96002.00
2024-01-24T07:25:09.455Z,96001.00
2024-01-24T07:26:02.746Z,95997.00
2024-01-24T07:27:02.756Z,95989.00
2024-01-24T07:28:03.102Z,95983.00
2024-01-24T07:29:02.756Z,95987.00
2024-01-24T07:30:02.762Z,95990.00
2024-01-24T07:31:02.794Z,95987.00
2024-01-24T07:32:05.487Z,95988.00
2024-01-24T07:33:02.822Z,95992.00
2024-01-24T07:34:02.897Z,95999.00
2024-01-24T07:35:02.933Z,95998.00
2024-01-24T07:36:02.763Z,95993.00
2024-01-24T07:37:02.786Z,95999.00
2024-01-24T07:38:02.754Z,96002.00
2024-01-24T07:39:02.769Z,95995.00
2024-01-24T07:40:02.838Z,96002.00
2024-01-24T07:41:02.741Z,96002.00
2024-01-24T07:42:02.755Z,95994.00
2024-01-24T07:43:02.898Z,95985.00
2024-01-24T07:44:03.707Z,95978.00
2024-01-24T07:45:02.757Z,95980.00
2024-01-24T07:46:03.590Z,95987.00
2024-01-24T07:47:02.930Z,95993.00
2024-01-24T07:48:03.083Z,96007.00
2024-01-24T07:49:03.411Z,96006.00
2024-01-24T07:50:02.871Z,95998.00
2024-01-24T07:51:02.961Z,95995.00
2024-01-24T07:52:02.809Z,95999.00
2024-01-24T07:53:02.981Z,96001.00
2024-01-24T07:54:02.794Z,96000.00
2024-01-24T07:55:02.805Z,95999.00
2024-01-24T07:56:11.093Z,95991.00
2024-01-24T07:57:02.771Z,95987.00
2024-01-24T07:58:11.007Z,95984.00
2024-01-24T07:59:02.975Z,95982.00
2024-01-24T08:00:02.773Z,95985.00
2024-01-24T08:01:02.878Z,95993.00
2024-01-24T08:02:03.057Z,95996.00
2024-01-24T08:03:01.790Z,95995.00
2024-01-24T08:04:03.108Z,95997.00
2024-01-24T08:05:03.274Z,96002.00
2024-01-24T08:06:02.818Z,96008.00
2024-01-24T08:07:02.848Z,96004.00
2024-01-24T08:08:02.806Z,95995.00
2024-01-24T08:09:02.801Z,95988.00
2024-01-24T08:10:02.869Z,95989.00
2024-01-24T08:11:03.476Z,95994.00
2024-01-24T08:12:03.475Z,95999.00
2024-01-24T08:13:03.003Z,96000.00
2024-01-24T08:14:02.836Z,95993.00
2024-01-24T08:15:02.823Z,95987.00
2024-01-24T08:16:09.532Z,95991.00
2024-01-24T08:17:02.996Z,95993.00
2024-01-24T08:18:02.914Z,95993.00
2024-01-24T08:19:03.131Z,95991.00
2024-01-24T08:20:02.944Z,95984.00
2024-01-24T08:21:04.941Z,95977.00
2024-01-24T08:22:02.929Z,95971.00
2024-01-24T08:23:02.850Z,95972.00
2024-01-24T08:24:02.864Z,95976.00
2024-01-24T08:25:02.883Z,95978.00
2024-01-24T08:26:02.882Z,95975.00
2024-01-24T08:27:03.031Z,95968.00
2024-01-24T08:28:03.081Z,95956.00
2024-01-24T08:29:02.983Z,95953.00
2024-01-24T08:30:02.868Z,95949.00
2024-01-24T08:31:02.910Z,95960.00
2024-01-24T08:32:02.859Z,95976.00
2024-01-24T08:33:03.037Z,95981.00
2024-01-24T08:34:03.132Z,95968.00
2024-01-24T08:35:03.023Z,95957.00
2024-01-24T08:36:02.897Z,95957.00
2024-01-24T08:37:02.903Z,95963.00
2024-01-24T08:38:03.018Z,95971.00
2024-01-24T08:39:03.001Z,95965.00
2024-01-24T08:40:02.894Z,95957.00
2024-01-24T08:41:02.893Z,95958.00
2024-01-24T08:42:03.495Z,95962.00
2024-01-24T08:43:02.986Z,95965.00
2024-01-24T08:44:03.003Z,95958.00
2024-01-24T08:45:02.885Z,95948.00
2024-01-24T08:46:02.925Z,95947.00
2024-01-24T08:47:02.881Z,95948.00
2024-01-24T08:48:03.002Z,95949.00
2024-01-24T08:49:03.101Z,95947.00
2024-01-24T08:50:03.066Z,95942.00
2024-01-24T08:51:03.148Z,95939.00
2024-01-24T08:52:02.961Z,95936.00
2024-01-24T08:53:02.900Z,95941.00
2024-01-24T08:54:02.915Z,95947.00
2024-01-24T08:55:03.098Z,95948.00
2024-01-24T08:56:03.928Z,95946.00
2024-01-24T08:57:02.888Z,95947.00
2024-01-24T08:58:03.355Z,95953.00
2024-01-24T08:59:02.906Z,95938.00
2024-01-24T09:00:06.694Z,95929.00
2024-01-24T09:01:03.040Z,95935.00
2024-01-24T09:02:03.043Z,95946.00
2024-01-24T09:03:03.051Z,95948.00
2024-01-24T09:04:03.229Z,95938.00
2024-01-24T09:05:03.051Z,95928.00
2024-01-24T09:06:03.161Z,95931.00
2024-01-24T09:07:03.086Z,95936.00
2024-01-24T09:08:03.067Z,95948.00
2024-01-24T09:09:02.974Z,95964.00
2024-01-24T09:10:03.041Z,95960.00
2024-01-24T09:11:02.972Z,95956.00
2024-01-24T09:12:02.969Z,95949.00
2024-01-24T09:13:03.028Z,95958.00
2024-01-24T09:14:02.984Z,95969.00
2024-01-24T09:15:02.991Z,95967.00
2024-01-24T09:16:03.037Z,95958.00
2024-01-24T09:17:03.013Z,95956.00
2024-01-24T09:18:03.746Z,95959.00
2024-01-24T09:19:03.648Z,95964.00
2024-01-24T09:20:03.789Z,95968.00
2024-01-24T09:21:03.521Z,95961.00
2024-01-24T09:22:03.746Z,95950.00
2024-01-24T09:23:03.493Z,95938.00
2024-01-24T09:24:03.599Z,95951.00
2024-01-24T09:25:06.652Z,95956.00
2024-01-24T09:26:03.424Z,95944.00
2024-01-24T09:27:04.004Z,95930.00
2024-01-24T09:28:03.477Z,95929.00
2024-01-24T09:29:06.027Z,95925.00
2024-01-24T09:30:03.503Z,95934.00
2024-01-24T09:31:03.439Z,95934.00
2024-01-24T09:32:04.018Z,95934.00
2024-01-24T09:33:06.086Z,95945.00
2024-01-24T09:34:03.720Z,95947.00
2024-01-24T09:35:03.667Z,95939.00
2024-01-24T09:36:06.589Z,95934.00
2024-01-24T09:37:03.400Z,95930.00
2024-01-24T09:38:04.070Z,95927.00
2024-01-24T09:39:03.401Z,95929.00
2024-01-24T09:40:03.642Z,95931.00
2024-01-24T09:41:04.026Z,95933.00
2024-01-24T09:42:03.660Z,95928.00
2024-01-24T09:43:03.619Z,95928.00
2024-01-24T09:44:03.505Z,95912.00
2024-01-24T09:45:06.167Z,95913.00
2024-01-24T09:46:11.493Z,95921.00
2024-01-24T09:47:04.517Z,95921.00
2024-01-24T09:48:04.077Z,95928.00
2024-01-24T09:49:03.644Z,95933.00
2024-01-24T09:50:03.505Z,95934.00
2024-01-24T09:51:06.002Z,95935.00
2024-01-24T09:52:03.534Z,95941.00
2024-01-24T09:53:08.506Z,95943.00
2024-01-24T09:54:04.512Z,95942.00
2024-01-24T09:55:03.657Z,95930.00
2024-01-24T09:56:03.516Z,95931.00
2024-01-24T09:57:03.588Z,95939.00
2024-01-24T09:58:04.160Z,95940.00
2024-01-24T09:59:06.557Z,95925.00
2024-01-24T10:00:03.570Z,95916.00
2024-01-24T10:01:03.651Z,95924.00
2024-01-24T10:02:03.597Z,95930.00
2024-01-24T10:03:05.596Z,95928.00
2024-01-24T10:04:05.696Z,95927.00
2024-01-24T10:05:04.005Z,95939.00
2024-01-24T10:06:03.614Z,95941.00
2024-01-24T10:07:03.686Z,95934.00
2024-01-24T10:08:04.010Z,95933.00
2024-01-24T10:09:06.105Z,95939.00
2024-01-24T10:10:03.605Z,95941.00
2024-01-24T10:11:04.500Z,95933.00
2024-01-24T10:12:06.502Z,95923.00
2024-01-24T10:13:07.335Z,95918.00
2024-01-24T10:14:03.603Z,95917.00
2024-01-24T10:15:03.590Z,95918.00
2024-01-24T10:16:04.885Z,95921.00
2024-01-24T10:17:03.633Z,95914.00
2024-01-24T10:18:04.135Z,95905.00
2024-01-24T10:19:03.702Z,95899.00
2024-01-24T10:20:03.688Z,95897.00
2024-01-24T10:21:03.622Z,95898.00
2024-01-24T10:22:04.756Z,95908.00
2024-01-24T10:23:04.062Z,95908.00
2024-01-24T10:24:03.629Z,95907.00
2024-01-24T10:25:03.734Z,95901.00
2024-01-24T10:26:04.043Z,95895.00
2024-01-24T10:27:03.600Z,95892.00
2024-01-24T10:28:04.096Z,95878.00
2024-01-24T10:29:03.627Z,95870.00
2024-01-24T10:30:03.602Z,95873.00
2024-01-24T10:31:03.674Z,95874.00
2024-01-24T10:32:03.753Z,95864.00
2024-01-24T10:33:04.176Z,95867.00
2024-01-24T10:34:03.689Z,95869.00
2024-01-24T10:35:03.749Z,95870.00
2024-01-24T10:36:10.564Z,95872.00
2024-01-24T10:37:03.669Z,95873.00
2024-01-24T10:38:04.033Z,95870.00
2024-01-24T10:39:03.642Z,95866.00
2024-01-24T10:40:03.710Z,95861.00
2024-01-24T10:41:03.631Z,95871.00
2024-01-24T10:42:06.489Z,95879.00
2024-01-24T10:43:04.053Z,95869.00
2024-01-24T10:44:03.652Z,95863.00
2024-01-24T10:45:04.061Z,95861.00
2024-01-24T10:46:03.688Z,95863.00
2024-01-24T10:47:03.624Z,95861.00
2024-01-24T10:48:04.080Z,95846.00
2024-01-24T10:49:03.801Z,95843.00
2024-01-24T10:50:03.728Z,95850.00
2024-01-24T10:51:03.639Z,95847.00
2024-01-24T10:52:03.732Z,95837.00
2024-01-24T10:53:03.641Z,95836.00
2024-01-24T10:54:03.634Z,95851.00
2024-01-24T10:55:03.743Z,95860.00
2024-01-24T10:56:04.034Z,95839.00
2024-01-24T10:57:03.627Z,95820.00
2024-01-24T10:58:05.836Z,95816.00
2024-01-24T10:59:03.636Z,95829.00
2024-01-24T11:00:03.641Z,95831.00
2024-01-24T11:01:04.706Z,95823.00
2024-01-24T11:02:03.639Z,95814.00
2024-01-24T11:03:04.125Z,95814.00
2024-01-24T11:04:05.159Z,95814.00
2024-01-24T11:05:03.656Z,95802.00
2024-01-24T11:06:03.628Z,95793.00
2024-01-24T11:07:03.676Z,95786.00
2024-01-24T11:08:04.032Z,95789.00
2024-01-24T11:09:03.652Z,95799.00
2024-01-24T11:10:04.604Z,95810.00
2024-01-24T11:11:03.633Z,95808.00
2024-01-24T11:12:03.636Z,95785.00
2024-01-24T11:13:05.125Z,95768.00
2024-01-24T11:14:03.732Z,95781.00
2024-01-24T11:15:03.768Z,95780.00
2024-01-24T11:16:05.286Z,95771.00
2024-01-24T11:17:03.847Z,95769.00
2024-01-24T11:18:04.070Z,95773.00
2024-01-24T11:19:03.973Z,95769.00
2024-01-24T11:20:04.031Z,95760.00
2024-01-24T11:21:03.822Z,95770.00
2024-01-24T11:22:10.424Z,95785.00
2024-01-24T11:23:04.045Z,95779.00
2024-01-24T11:24:03.829Z,95772.00
2024-01-24T11:25:04.952Z,95757.00
2024-01-24T11:26:03.895Z,95754.00
2024-01-24T11:27:03.908Z,95777.00
2024-01-24T11:28:04.206Z,95775.00
2024-01-24T11:29:03.975Z,95778.00
2024-01-24T11:30:04.034Z,95758.00
2024-01-24T11:31:04.192Z,95753.00
2024-01-24T11:32:06.911Z,95760.00
2024-01-24T11:33:04.630Z,95753.00
2024-01-24T11:34:04.149Z,95729.00
2024-01-24T11:35:04.250Z,95731.00
2024-01-24T11:36:04.098Z,95746.00
2024-01-24T11:37:04.214Z,95752.00
2024-01-24T11:38:12.658Z,95740.00
2024-01-24T11:39:04.106Z,95741.00
2024-01-24T11:40:04.147Z,95746.00
2024-01-24T11:41:04.121Z,95749.00
2024-01-24T11:42:04.563Z,95745.00
2024-01-24T11:43:05.172Z,95726.00
2024-01-24T11:44:04.109Z,95733.00
2024-01-24T11:45:04.117Z,95738.00
2024-01-24T11:46:04.224Z,95740.00
2024-01-24T11:47:04.545Z,95736.00
2024-01-24T11:48:04.201Z,95732.00
2024-01-24T11:49:04.224Z,95731.00
2024-01-24T11:50:04.177Z,95744.00
2024-01-24T11:51:04.132Z,95740.00
2024-01-24T11:52:04.592Z,95744.00
2024-01-24T11:53:04.135Z,95755.00
2024-01-24T11:54:04.159Z,95746.00
2024-01-24T11:55:04.208Z,95753.00
2024-01-24T11:56:04.136Z,95740.00
2024-01-24T11:57:04.609Z,95736.00
2024-01-24T11:58:04.236Z,95749.00
2024-01-24T11:59:04.142Z,95748.00
2024-01-24T12:00:11.049Z,95753.00
2024-01-24T12:01:06.220Z,95740.00
2024-01-24T12:02:04.132Z,95739.00
2024-01-24T12:03:04.558Z,95751.00
2024-01-24T12:04:04.206Z,95732.00
2024-01-24T12:05:04.196Z,95715.00
2024-01-24T12:06:04.171Z,95714.00
2024-01-24T12:07:04.668Z,95730.00
2024-01-24T12:08:04.134Z,95723.00
2024-01-24T12:09:04.141Z,95718.00
2024-01-24T12:10:04.225Z,95718.00
2024-01-24T12:11:07.053Z,95716.00
2024-01-24T12:12:04.560Z,95712.00
2024-01-24T12:13:04.208Z,95715.00
2024-01-24T12:14:05.064Z,95709.00
2024-01-24T12:15:04.165Z,95703.00
2024-01-24T12:16:04.595Z,95691.00
2024-01-24T12:17:05.090Z,95687.00
2024-01-24T12:18:05.135Z,95702.00
2024-01-24T12:19:04.922Z,95702.00
2024-01-24T12:20:04.700Z,95707.00
2024-01-24T12:21:04.606Z,95707.00
2024-01-24T12:22:04.592Z,95688.00
2024-01-24T12:23:05.081Z,95681.00
2024-01-24T12:24:04.572Z,95691.00
2024-01-24T12:25:04.634Z,95693.00
2024-01-24T12:26:04.586Z,95692.00
2024-01-24T12:27:04.588Z,95676.00
2024-01-24T12:28:05.083Z,95679.00
2024-01-24T12:29:04.616Z,95684.00
2024-01-24T12:30:04.616Z,95676.00
2024-01-24T12:31:04.729Z,95675.00
2024-01-24T12:32:04.673Z,95674.00
2024-01-24T12:33:05.122Z,95677.00
2024-01-24T12:34:04.864Z,95672.00
2024-01-24T12:35:04.857Z,95671.00
2024-01-24T12:36:04.758Z,95686.00
2024-01-24T12:37:04.988Z,95687.00